sensor_id;sensor_type;location;lat;lon;timestamp;pressure;altitude;pressure_sealevel;temperature
48854;BMP280;34673;52.808;17.856;2023-03-13T00:01:57;99581.28;;;2.44
48854;BMP280;34673;52.808;17.856;2023-03-13T00:04:24;99585.50;;;2.44
48854;BMP280;34673;52.808;17.856;2023-03-13T00:06:51;99590.63;;;2.44
48854;BMP280;34673;52.808;17.856;2023-03-13T00:09:18;99587.22;;;2.42
48854;BMP280;34673;52.808;17.856;2023-03-13T00:11:45;99587.22;;;2.42
48854;BMP280;34673;52.808;17.856;2023-03-13T00:14:13;99581.22;;;2.41
48854;BMP280;34673;52.808;17.856;2023-03-13T00:16:40;99580.38;;;2.41
48854;BMP280;34673;52.808;17.856;2023-03-13T00:19:08;99578.63;;;2.37
48854;BMP280;34673;52.808;17.856;2023-03-13T00:21:35;99582.00;;;2.36
48854;BMP280;34673;52.808;17.856;2023-03-13T00:24:03;99585.38;;;2.32
48854;BMP280;34673;52.808;17.856;2023-03-13T00:26:31;99578.56;;;2.31
48854;BMP280;34673;52.808;17.856;2023-03-13T00:28:58;99571.72;;;2.30
48854;BMP280;34673;52.808;17.856;2023-03-13T00:31:28;99571.72;;;2.30
48854;BMP280;34673;52.808;17.856;2023-03-13T00:34:00;99578.50;;;2.28
48854;BMP280;34673;52.808;17.856;2023-03-13T00:36:31;99578.50;;;2.28
48854;BMP280;34673;52.808;17.856;2023-03-13T00:39:01;99568.25;;;2.25
48854;BMP280;34673;52.808;17.856;2023-03-13T00:41:30;99563.16;;;2.25
48854;BMP280;34673;52.808;17.856;2023-03-13T00:43:58;99550.34;;;2.18
48854;BMP280;34673;52.808;17.856;2023-03-13T00:46:26;99544.34;;;2.16
48854;BMP280;34673;52.808;17.856;2023-03-13T00:48:55;99547.78;;;2.18
48854;BMP280;34673;52.808;17.856;2023-03-13T00:51:23;99554.63;;;2.22
48854;BMP280;34673;52.808;17.856;2023-03-13T00:53:54;99552.91;;;2.21
48854;BMP280;34673;52.808;17.856;2023-03-13T00:56:22;99552.03;;;2.19
48854;BMP280;34673;52.808;17.856;2023-03-13T00:58:49;99551.22;;;2.20
48854;BMP280;34673;52.808;17.856;2023-03-13T01:01:31;99551.25;;;2.24
48854;BMP280;34673;52.808;17.856;2023-03-13T01:04:10;99542.69;;;2.18
48854;BMP280;34673;52.808;17.856;2023-03-13T01:06:39;99542.66;;;2.15
48854;BMP280;34673;52.808;17.856;2023-03-13T01:09:11;99540.16;;;2.20
48854;BMP280;34673;52.808;17.856;2023-03-13T01:11:41;99529.03;;;2.16
48854;BMP280;34673;52.808;17.856;2023-03-13T01:14:12;99532.47;;;2.18
48854;BMP280;34673;52.808;17.856;2023-03-13T01:16:40;99533.31;;;2.17
48854;BMP280;34673;52.808;17.856;2023-03-13T01:19:13;99532.47;;;2.18
48854;BMP280;34673;52.808;17.856;2023-03-13T01:21:42;99533.31;;;2.19
48854;BMP280;34673;52.808;17.856;2023-03-13T01:24:10;99529.84;;;2.12
48854;BMP280;34673;52.808;17.856;2023-03-13T01:26:37;99534.13;;;2.16
48854;BMP280;34673;52.808;17.856;2023-03-13T01:29:04;99535.00;;;2.17
48854;BMP280;34673;52.808;17.856;2023-03-13T01:31:33;99535.81;;;2.14
48854;BMP280;34673;52.808;17.856;2023-03-13T01:34:05;99539.22;;;2.13
48854;BMP280;34673;52.808;17.856;2023-03-13T01:36:34;99534.09;;;2.13
48854;BMP280;34673;52.808;17.856;2023-03-13T01:39:02;99528.94;;;2.07
48854;BMP280;34673;52.808;17.856;2023-03-13T01:41:30;99523.88;;;2.10
48854;BMP280;34673;52.808;17.856;2023-03-13T01:43:57;99520.44;;;2.08
48854;BMP280;34673;52.808;17.856;2023-03-13T01:46:37;99510.22;;;2.08
48854;BMP280;34673;52.808;17.856;2023-03-13T01:49:36;99511.97;;;2.09
48854;BMP280;34673;52.808;17.856;2023-03-13T01:52:28;99511.16;;;2.12
48854;BMP280;34673;52.808;17.856;2023-03-13T01:55:11;99511.97;;;2.09
48854;BMP280;34673;52.808;17.856;2023-03-13T01:57:49;99498.31;;;2.07
48854;BMP280;34673;52.808;17.856;2023-03-13T02:00:23;99495.84;;;2.13
48854;BMP280;34673;52.808;17.856;2023-03-13T02:02:54;99483.09;;;2.13
48854;BMP280;34673;52.808;17.856;2023-03-13T02:05:25;99495.88;;;2.15
48854;BMP280;34673;52.808;17.856;2023-03-13T02:08:24;99500.06;;;2.11
48854;BMP280;34673;52.808;17.856;2023-03-13T02:11:58;99503.47;;;2.10
48854;BMP280;34673;52.808;17.856;2023-03-13T02:14:06;99502.59;;;2.10
48854;BMP280;34673;52.808;17.856;2023-03-13T02:16:34;99491.63;;;2.15
48854;BMP280;34673;52.808;17.856;2023-03-13T02:19:15;99495.06;;;2.17
48854;BMP280;34673;52.808;17.856;2023-03-13T02:22:02;99483.97;;;2.17
48854;BMP280;34673;52.808;17.856;2023-03-13T02:27:33;99498.47;;;2.22
48854;BMP280;34673;52.808;17.856;2023-03-13T02:30:03;99498.47;;;2.22
48854;BMP280;34673;52.808;17.856;2023-03-13T02:32:31;99493.44;;;2.26
48854;BMP280;34673;52.808;17.856;2023-03-13T02:35:07;99498.56;;;2.26
48854;BMP280;34673;52.808;17.856;2023-03-13T02:37:36;99499.38;;;2.25
48854;BMP280;34673;52.808;17.856;2023-03-13T02:40:10;99487.47;;;2.25
48854;BMP280;34673;52.808;17.856;2023-03-13T02:42:40;99490.91;;;2.27
48854;BMP280;34673;52.808;17.856;2023-03-13T02:45:09;99488.38;;;2.29
48854;BMP280;34673;52.808;17.856;2023-03-13T02:47:39;99489.25;;;2.31
48854;BMP280;34673;52.808;17.856;2023-03-13T02:50:07;99487.56;;;2.31
48854;BMP280;34673;52.808;17.856;2023-03-13T02:52:39;99479.91;;;2.33
48854;BMP280;34673;52.808;17.856;2023-03-13T02:55:15;99483.34;;;2.35
48854;BMP280;34673;52.808;17.856;2023-03-13T02:57:44;99482.53;;;2.39
48854;BMP280;34673;52.808;17.856;2023-03-13T03:00:11;99468.06;;;2.41
48854;BMP280;34673;52.808;17.856;2023-03-13T03:02:39;99457.88;;;2.44
48854;BMP280;34673;52.808;17.856;2023-03-13T03:05:06;99461.31;;;2.46
48854;BMP280;34673;52.808;17.856;2023-03-13T03:07:34;99450.25;;;2.42
48854;BMP280;34673;52.808;17.856;2023-03-13T03:10:01;99471.56;;;2.49
48854;BMP280;34673;52.808;17.856;2023-03-13T03:12:28;99468.19;;;2.50
48854;BMP280;34673;52.808;17.856;2023-03-13T03:14:55;99479.25;;;2.51
48854;BMP280;34673;52.808;17.856;2023-03-13T03:17:23;99480.13;;;2.54
48854;BMP280;34673;52.808;17.856;2023-03-13T03:19:52;99474.19;;;2.57
48854;BMP280;34673;52.808;17.856;2023-03-13T03:22:19;99466.56;;;2.58
48854;BMP280;34673;52.808;17.856;2023-03-13T03:24:46;99461.50;;;2.61
48854;BMP280;34673;52.808;17.856;2023-03-13T03:27:13;99458.06;;;2.59
48854;BMP280;34673;52.808;17.856;2023-03-13T03:29:46;99464.94;;;2.66
48854;BMP280;34673;52.808;17.856;2023-03-13T03:32:13;99464.94;;;2.66
48854;BMP280;34673;52.808;17.856;2023-03-13T03:34:40;99456.44;;;2.67
48854;BMP280;34673;52.808;17.856;2023-03-13T03:37:07;99446.25;;;2.71
48854;BMP280;34673;52.808;17.856;2023-03-13T03:39:35;99443.72;;;2.74
48854;BMP280;34673;52.808;17.856;2023-03-13T03:42:04;99435.16;;;2.69
48854;BMP280;34673;52.808;17.856;2023-03-13T03:44:31;99449.72;;;2.79
48854;BMP280;34673;52.808;17.856;2023-03-13T03:46:59;99453.16;;;2.81
48854;BMP280;34673;52.808;17.856;2023-03-13T03:49:31;99437.84;;;2.84
48854;BMP280;34673;52.808;17.856;2023-03-13T03:51:58;99430.19;;;2.87
48854;BMP280;34673;52.808;17.856;2023-03-13T03:54:30;99428.50;;;2.86
48854;BMP280;34673;52.808;17.856;2023-03-13T03:56:58;99429.38;;;2.93
48854;BMP280;34673;52.808;17.856;2023-03-13T03:59:25;99432.84;;;2.96
48854;BMP280;34673;52.808;17.856;2023-03-13T04:01:55;99425.19;;;2.98
48854;BMP280;34673;52.808;17.856;2023-03-13T04:04:25;99422.66;;;2.99
48854;BMP280;34673;52.808;17.856;2023-03-13T04:07:00;99414.16;;;3.03
48854;BMP280;34673;52.808;17.856;2023-03-13T04:09:29;99404.75;;;3.01
48854;BMP280;34673;52.808;17.856;2023-03-13T04:11:59;99412.47;;;3.05
48854;BMP280;34673;52.808;17.856;2023-03-13T04:14:28;99409.09;;;3.09
48854;BMP280;34673;52.808;17.856;2023-03-13T04:16:56;99404.00;;;3.13
48854;BMP280;34673;52.808;17.856;2023-03-13T04:19:23;99407.41;;;3.15
48854;BMP280;34673;52.808;17.856;2023-03-13T04:21:50;99401.47;;;3.17
48854;BMP280;34673;52.808;17.856;2023-03-13T04:24:18;99410.84;;;3.20
48854;BMP280;34673;52.808;17.856;2023-03-13T04:26:46;99409.16;;;3.22
48854;BMP280;34673;52.808;17.856;2023-03-13T04:29:14;99414.28;;;3.25
48854;BMP280;34673;52.808;17.856;2023-03-13T04:32:10;99403.25;;;3.29
48854;BMP280;34673;52.808;17.856;2023-03-13T04:35:00;99400.69;;;3.29
48854;BMP280;34673;52.808;17.856;2023-03-13T04:37:38;99393.88;;;3.28
48854;BMP280;34673;52.808;17.856;2023-03-13T04:40:21;99380.28;;;3.32
48854;BMP280;34673;52.808;17.856;2023-03-13T04:43:04;99393.94;;;3.40
48854;BMP280;34673;52.808;17.856;2023-03-13T04:45:58;99383.72;;;3.43
48854;BMP280;34673;52.808;17.856;2023-03-13T04:48:38;99386.31;;;3.46
48854;BMP280;34673;52.808;17.856;2023-03-13T04:51:32;99380.31;;;3.47
48854;BMP280;34673;52.808;17.856;2023-03-13T04:54:16;99384.66;;;3.53
48854;BMP280;34673;52.808;17.856;2023-03-13T04:56:52;99376.09;;;3.55
48854;BMP280;34673;52.808;17.856;2023-03-13T04:59:38;99367.56;;;3.52
48854;BMP280;34673;52.808;17.856;2023-03-13T05:02:23;99383.81;;;3.62
48854;BMP280;34673;52.808;17.856;2023-03-13T05:05:00;99384.69;;;3.65
48854;BMP280;34673;52.808;17.856;2023-03-13T05:07:27;99383.84;;;3.68
48854;BMP280;34673;52.808;17.856;2023-03-13T05:10:00;99390.69;;;3.72
48854;BMP280;34673;52.808;17.856;2023-03-13T05:12:47;99362.53;;;3.69
48854;BMP280;34673;52.808;17.856;2023-03-13T05:15:27;99361.72;;;3.76
48854;BMP280;34673;52.808;17.856;2023-03-13T05:18:13;99346.38;;;3.76
48854;BMP280;34673;52.808;17.856;2023-03-13T05:21:00;99357.47;;;3.81
48854;BMP280;34673;52.808;17.856;2023-03-13T05:23:36;99361.72;;;3.85
48854;BMP280;34673;52.808;17.856;2023-03-13T05:26:41;99349.78;;;3.84
48854;BMP280;34673;52.808;17.856;2023-03-13T05:29:29;99355.78;;;3.91
48854;BMP280;34673;52.808;17.856;2023-03-13T05:32:05;99348.13;;;3.95
48854;BMP280;34673;52.808;17.856;2023-03-13T05:34:41;99346.44;;;3.99
48854;BMP280;34673;52.808;17.856;2023-03-13T05:37:31;99343.00;;;4.02
48854;BMP280;34673;52.808;17.856;2023-03-13T05:40:17;99336.19;;;4.04
48854;BMP280;34673;52.808;17.856;2023-03-13T05:43:13;99321.72;;;4.07
48854;BMP280;34673;52.808;17.856;2023-03-13T05:45:57;99320.84;;;4.10
48854;BMP280;34673;52.808;17.856;2023-03-13T05:48:38;99325.13;;;4.12
48854;BMP280;34673;52.808;17.856;2023-03-13T05:51:24;99321.72;;;4.13
48854;BMP280;34673;52.808;17.856;2023-03-13T05:53:51;99317.44;;;4.14
48854;BMP280;34673;52.808;17.856;2023-03-13T05:56:30;99326.00;;;4.16
48854;BMP280;34673;52.808;17.856;2023-03-13T05:59:18;99328.56;;;4.24
48854;BMP280;34673;52.808;17.856;2023-03-13T06:01:55;99331.09;;;4.25
48854;BMP280;34673;52.808;17.856;2023-03-13T06:04:28;99332.84;;;4.29
48854;BMP280;34673;52.808;17.856;2023-03-13T06:06:56;99333.69;;;4.30
48854;BMP280;34673;52.808;17.856;2023-03-13T06:09:23;99329.41;;;4.33
48854;BMP280;34673;52.808;17.856;2023-03-13T06:11:51;99339.66;;;4.36
48854;BMP280;34673;52.808;17.856;2023-03-13T06:14:18;99324.28;;;4.30
48854;BMP280;34673;52.808;17.856;2023-03-13T06:17:18;99341.34;;;4.39
48854;BMP280;34673;52.808;17.856;2023-03-13T06:19:46;99340.50;;;4.41
48854;BMP280;34673;52.808;17.856;2023-03-13T06:22:15;99328.56;;;4.40
48854;BMP280;34673;52.808;17.856;2023-03-13T06:24:42;99328.56;;;4.43
48854;BMP280;34673;52.808;17.856;2023-03-13T06:27:15;99327.69;;;4.44
48854;BMP280;34673;52.808;17.856;2023-03-13T06:29:42;99309.78;;;4.41
48854;BMP280;34673;52.808;17.856;2023-03-13T06:32:09;99314.91;;;4.52
48854;BMP280;34673;52.808;17.856;2023-03-13T06:34:36;99312.34;;;4.57
48854;BMP280;34673;52.808;17.856;2023-03-13T06:37:04;99296.97;;;4.57
48854;BMP280;34673;52.808;17.856;2023-03-13T06:39:31;99301.22;;;4.64
48854;BMP280;34673;52.808;17.856;2023-03-13T06:41:58;99293.56;;;4.70
48854;BMP280;34673;52.808;17.856;2023-03-13T06:44:25;99291.84;;;4.75
48854;BMP280;34673;52.808;17.856;2023-03-13T06:46:53;99284.97;;;4.77
48854;BMP280;34673;52.808;17.856;2023-03-13T06:49:20;99281.56;;;4.84
48854;BMP280;34673;52.808;17.856;2023-03-13T06:51:47;99281.56;;;4.84
48854;BMP280;34673;52.808;17.856;2023-03-13T06:54:14;99272.16;;;4.88
48854;BMP280;34673;52.808;17.856;2023-03-13T06:56:41;99284.06;;;5.01
48854;BMP280;34673;52.808;17.856;2023-03-13T06:59:08;99284.94;;;5.08
48854;BMP280;34673;52.808;17.856;2023-03-13T07:01:35;99279.75;;;5.16
48854;BMP280;34673;52.808;17.856;2023-03-13T07:04:02;99276.31;;;5.24
48854;BMP280;34673;52.808;17.856;2023-03-13T07:06:29;99268.59;;;5.30
48854;BMP280;34673;52.808;17.856;2023-03-13T07:08:56;99260.91;;;5.30
48854;BMP280;34673;52.808;17.856;2023-03-13T07:11:23;99268.56;;;5.41
48854;BMP280;34673;52.808;17.856;2023-03-13T07:13:53;99254.84;;;5.48
48854;BMP280;34673;52.808;17.856;2023-03-13T07:16:40;99261.63;;;5.55
48854;BMP280;34673;52.808;17.856;2023-03-13T07:19:07;99247.06;;;5.62
48854;BMP280;34673;52.808;17.856;2023-03-13T07:21:34;99244.47;;;5.67
48854;BMP280;34673;52.808;17.856;2023-03-13T07:24:02;99239.31;;;5.67
48854;BMP280;34673;52.808;17.856;2023-03-13T07:26:29;99241.84;;;5.74
48854;BMP280;34673;52.808;17.856;2023-03-13T07:28:57;99230.72;;;5.77
48854;BMP280;34673;52.808;17.856;2023-03-13T07:31:24;99236.66;;;5.81
48854;BMP280;34673;52.808;17.856;2023-03-13T07:33:53;99230.66;;;5.85
48854;BMP280;34673;52.808;17.856;2023-03-13T07:36:23;99221.22;;;5.90
48854;BMP280;34673;52.808;17.856;2023-03-13T07:38:51;99229.75;;;5.98
48854;BMP280;34673;52.808;17.856;2023-03-13T07:41:19;99213.47;;;6.01
48854;BMP280;34673;52.808;17.856;2023-03-13T07:43:46;99223.69;;;6.08
48854;BMP280;34673;52.808;17.856;2023-03-13T07:46:16;99219.34;;;6.13
48854;BMP280;34673;52.808;17.856;2023-03-13T07:48:45;99221.03;;;6.17
48854;BMP280;34673;52.808;17.856;2023-03-13T07:51:17;99215.88;;;6.20
48854;BMP280;34673;52.808;17.856;2023-03-13T07:53:55;99205.56;;;6.24
48854;BMP280;34673;52.808;17.856;2023-03-13T07:56:23;99208.09;;;6.27
48854;BMP280;34673;52.808;17.856;2023-03-13T07:58:50;99193.53;;;6.29
48854;BMP280;34673;52.808;17.856;2023-03-13T08:01:20;99203.75;;;6.35
48854;BMP280;34673;52.808;17.856;2023-03-13T08:03:52;99196.88;;;6.37
48854;BMP280;34673;52.808;17.856;2023-03-13T08:06:24;99194.25;;;6.43
48854;BMP280;34673;52.808;17.856;2023-03-13T08:08:55;99189.06;;;6.48
48854;BMP280;34673;52.808;17.856;2023-03-13T08:11:24;99186.47;;;6.52
48854;BMP280;34673;52.808;17.856;2023-03-13T08:13:52;99179.56;;;6.57
48854;BMP280;34673;52.808;17.856;2023-03-13T08:16:28;99176.91;;;6.62
48854;BMP280;34673;52.808;17.856;2023-03-13T08:18:57;99170.88;;;6.68
48854;BMP280;34673;52.808;17.856;2023-03-13T08:21:27;99169.13;;;6.70
48854;BMP280;34673;52.808;17.856;2023-03-13T08:23:56;99170.81;;;6.74
48854;BMP280;34673;52.808;17.856;2023-03-13T08:26:26;99165.63;;;6.77
48854;BMP280;34673;52.808;17.856;2023-03-13T08:28:58;99163.09;;;6.74
48854;BMP280;34673;52.808;17.856;2023-03-13T08:31:30;99165.59;;;6.80
48854;BMP280;34673;52.808;17.856;2023-03-13T08:33:58;99153.59;;;6.82
48854;BMP280;34673;52.808;17.856;2023-03-13T08:36:30;99152.69;;;6.83
48854;BMP280;34673;52.808;17.856;2023-03-13T08:39:03;99158.69;;;6.85
48854;BMP280;34673;52.808;17.856;2023-03-13T08:41:33;99148.41;;;6.85
48854;BMP280;34673;52.808;17.856;2023-03-13T08:44:03;99141.53;;;6.87
48854;BMP280;34673;52.808;17.856;2023-03-13T08:46:33;99146.63;;;6.90
48854;BMP280;34673;52.808;17.856;2023-03-13T08:49:02;99141.44;;;6.93
48854;BMP280;34673;52.808;17.856;2023-03-13T08:51:30;99138.03;;;6.91
48854;BMP280;34673;52.808;17.856;2023-03-13T08:53:57;99141.41;;;6.96
48854;BMP280;34673;52.808;17.856;2023-03-13T08:56:26;99127.66;;;6.97
48854;BMP280;34673;52.808;17.856;2023-03-13T08:58:56;99116.53;;;6.97
48854;BMP280;34673;52.808;17.856;2023-03-13T09:01:28;99116.47;;;7.01
48854;BMP280;34673;52.808;17.856;2023-03-13T09:03:56;99107.03;;;7.03
48854;BMP280;34673;52.808;17.856;2023-03-13T09:06:23;99107.88;;;7.04
48854;BMP280;34673;52.808;17.856;2023-03-13T09:08:50;99113.88;;;7.04
48854;BMP280;34673;52.808;17.856;2023-03-13T09:11:20;99090.66;;;7.09
48854;BMP280;34673;52.808;17.856;2023-03-13T09:13:49;99080.34;;;7.10
48854;BMP280;34673;52.808;17.856;2023-03-13T09:16:21;99074.34;;;7.12
48854;BMP280;34673;52.808;17.856;2023-03-13T09:18:50;99069.94;;;7.18
48854;BMP280;34673;52.808;17.856;2023-03-13T09:21:23;99062.22;;;7.20
48854;BMP280;34673;52.808;17.856;2023-03-13T09:23:51;99057.09;;;7.20
48854;BMP280;34673;52.808;17.856;2023-03-13T09:26:19;99054.41;;;7.24
48854;BMP280;34673;52.808;17.856;2023-03-13T09:28:50;99051.84;;;7.26
48854;BMP280;34673;52.808;17.856;2023-03-13T09:31:25;99057.78;;;7.29
48854;BMP280;34673;52.808;17.856;2023-03-13T09:33:53;99059.50;;;7.29
48854;BMP280;34673;52.808;17.856;2023-03-13T09:36:21;99047.38;;;7.37
48854;BMP280;34673;52.808;17.856;2023-03-13T09:38:51;99056.69;;;7.44
48854;BMP280;34673;52.808;17.856;2023-03-13T09:44:14;99030.69;;;7.60
48854;BMP280;34673;52.808;17.856;2023-03-13T09:46:54;99025.41;;;7.69
48854;BMP280;34673;52.808;17.856;2023-03-13T09:52:17;99006.34;;;7.79
48854;BMP280;34673;52.808;17.856;2023-03-13T09:57:53;99000.94;;;7.91
48854;BMP280;34673;52.808;17.856;2023-03-13T10:00:31;98987.09;;;7.98
48854;BMP280;34673;52.808;17.856;2023-03-13T10:06:17;98974.78;;;8.13
48854;BMP280;34673;52.808;17.856;2023-03-13T10:08:45;98964.53;;;8.10
48854;BMP280;34673;52.808;17.856;2023-03-13T10:11:26;98975.56;;;8.16
48854;BMP280;34673;52.808;17.856;2023-03-13T10:19:36;98967.75;;;8.21
48854;BMP280;34673;52.808;17.856;2023-03-13T10:22:12;98959.09;;;8.25
48854;BMP280;34673;52.808;17.856;2023-03-13T10:24:49;98954.66;;;8.30
48854;BMP280;34673;52.808;17.856;2023-03-13T10:27:20;98959.81;;;8.30
48854;BMP280;34673;52.808;17.856;2023-03-13T10:29:47;98946.09;;;8.30
48854;BMP280;34673;52.808;17.856;2023-03-13T10:32:16;98951.09;;;8.36
48854;BMP280;34673;52.808;17.856;2023-03-13T10:37:15;98941.63;;;8.39
48854;BMP280;34673;52.808;17.856;2023-03-13T10:39:42;98950.19;;;8.38
48854;BMP280;34673;52.808;17.856;2023-03-13T10:42:31;98950.25;;;8.35
48854;BMP280;34673;52.808;17.856;2023-03-13T10:45:04;98949.47;;;8.32
48854;BMP280;34673;52.808;17.856;2023-03-13T10:47:33;98940.09;;;8.28
48854;BMP280;34673;52.808;17.856;2023-03-13T10:50:01;98942.81;;;8.23
48854;BMP280;34673;52.808;17.856;2023-03-13T10:52:41;98946.22;;;8.24
48854;BMP280;34673;52.808;17.856;2023-03-13T10:55:11;98936.00;;;8.19
48854;BMP280;34673;52.808;17.856;2023-03-13T10:57:42;98939.47;;;8.18
48854;BMP280;34673;52.808;17.856;2023-03-13T11:00:37;98931.88;;;8.12
48854;BMP280;34673;52.808;17.856;2023-03-13T11:03:16;98925.09;;;8.08
48854;BMP280;34673;52.808;17.856;2023-03-13T11:06:00;98908.06;;;8.00
48854;BMP280;34673;52.808;17.856;2023-03-13T11:08:34;98920.06;;;8.02
48854;BMP280;34673;52.808;17.856;2023-03-13T11:11:04;98911.53;;;7.99
48854;BMP280;34673;52.808;17.856;2023-03-13T11:13:42;98903.03;;;7.94
48854;BMP280;34673;52.808;17.856;2023-03-13T11:21:36;98886.09;;;7.84
48854;BMP280;34673;52.808;17.856;2023-03-13T11:24:10;98885.28;;;7.82
48854;BMP280;34673;52.808;17.856;2023-03-13T11:26:53;98870.69;;;7.81
48854;BMP280;34673;52.808;17.856;2023-03-13T11:29:43;98867.28;;;7.82
48854;BMP280;34673;52.808;17.856;2023-03-13T11:32:40;98860.41;;;7.81
48854;BMP280;34673;52.808;17.856;2023-03-13T11:35:36;98855.19;;;7.84
48854;BMP280;34673;52.808;17.856;2023-03-13T11:49:20;98829.41;;;7.87
48854;BMP280;34673;52.808;17.856;2023-03-13T11:52:08;98834.56;;;7.87
48854;BMP280;34673;52.808;17.856;2023-03-13T11:55:02;98828.59;;;7.84
48854;BMP280;34673;52.808;17.856;2023-03-13T12:00:47;98830.19;;;7.91
48854;BMP280;34673;52.808;17.856;2023-03-13T12:06:43;98822.47;;;7.89
48854;BMP280;34673;52.808;17.856;2023-03-13T12:09:27;98819.03;;;7.90
48854;BMP280;34673;52.808;17.856;2023-03-13T12:12:00;98815.56;;;7.91
48854;BMP280;34673;52.808;17.856;2023-03-13T12:17:21;98808.75;;;7.90
48854;BMP280;34673;52.808;17.856;2023-03-13T12:20:01;98812.19;;;7.89
48854;BMP280;34673;52.808;17.856;2023-03-13T12:25:29;98789.97;;;7.85
48854;BMP280;34673;52.808;17.856;2023-03-13T12:33:35;98777.91;;;7.87
48854;BMP280;34673;52.808;17.856;2023-03-13T12:36:13;98764.22;;;7.85
48854;BMP280;34673;52.808;17.856;2023-03-13T12:41:22;98760.75;;;7.86
48854;BMP280;34673;52.808;17.856;2023-03-13T12:43:52;98772.78;;;7.87
48854;BMP280;34673;52.808;17.856;2023-03-13T12:54:45;98756.41;;;7.90
48854;BMP280;34673;52.808;17.856;2023-03-13T12:57:32;98738.34;;;7.91
48854;BMP280;34673;52.808;17.856;2023-03-13T13:00:18;98729.72;;;7.92
48854;BMP280;34673;52.808;17.856;2023-03-13T13:02:46;98735.69;;;7.94
48854;BMP280;34673;52.808;17.856;2023-03-13T13:05:26;98738.25;;;7.94
48854;BMP280;34673;52.808;17.856;2023-03-13T13:07:54;98722.00;;;7.92
48854;BMP280;34673;52.808;17.856;2023-03-13T13:10:24;98723.53;;;8.01
48854;BMP280;34673;52.808;17.856;2023-03-13T13:15:58;98717.47;;;8.04
48854;BMP280;34673;52.808;17.856;2023-03-13T13:18:30;98722.63;;;8.04
48854;BMP280;34673;52.808;17.856;2023-03-13T13:23:38;98707.88;;;8.09
48854;BMP280;34673;52.808;17.856;2023-03-13T13:28:59;98718.91;;;8.14
48854;BMP280;34673;52.808;17.856;2023-03-13T13:34:52;98708.53;;;8.17
48854;BMP280;34673;52.808;17.856;2023-03-13T13:37:25;98708.59;;;8.14
48854;BMP280;34673;52.808;17.856;2023-03-13T13:40:09;98705.09;;;8.18
48854;BMP280;34673;52.808;17.856;2023-03-13T13:47:42;98705.09;;;8.18
48854;BMP280;34673;52.808;17.856;2023-03-13T13:50:24;98699.94;;;8.18
48854;BMP280;34673;52.808;17.856;2023-03-13T13:52:52;98685.28;;;8.20
48854;BMP280;34673;52.808;17.856;2023-03-13T13:55:40;98693.03;;;8.20
48854;BMP280;34673;52.808;17.856;2023-03-13T13:58:29;98690.50;;;8.17
48854;BMP280;34673;52.808;17.856;2023-03-13T14:01:01;98702.44;;;8.21
48854;BMP280;34673;52.808;17.856;2023-03-13T14:03:32;98690.38;;;8.23
48854;BMP280;34673;52.808;17.856;2023-03-13T14:08:39;98684.22;;;8.27
48854;BMP280;34673;52.808;17.856;2023-03-13T14:14:28;98695.34;;;8.29
48854;BMP280;34673;52.808;17.856;2023-03-13T14:16:56;98680.78;;;8.28
48854;BMP280;34673;52.808;17.856;2023-03-13T14:19:26;98679.88;;;8.31
48854;BMP280;34673;52.808;17.856;2023-03-13T14:22:05;98680.53;;;8.37
48854;BMP280;34673;52.808;17.856;2023-03-13T14:24:33;98678.81;;;8.39
48854;BMP280;34673;52.808;17.856;2023-03-13T14:27:13;98680.41;;;8.43
48854;BMP280;34673;52.808;17.856;2023-03-13T14:29:41;98677.81;;;8.43
48854;BMP280;34673;52.808;17.856;2023-03-13T14:32:08;98685.47;;;8.47
48854;BMP280;34673;52.808;17.856;2023-03-13T14:34:36;98685.47;;;8.47
48854;BMP280;34673;52.808;17.856;2023-03-13T14:37:33;98676.88;;;8.48
48854;BMP280;34673;52.808;17.856;2023-03-13T14:40:06;98676.97;;;8.45
48854;BMP280;34673;52.808;17.856;2023-03-13T14:42:40;98676.03;;;8.47
48854;BMP280;34673;52.808;17.856;2023-03-13T14:45:14;98668.34;;;8.46
48854;BMP280;34673;52.808;17.856;2023-03-13T14:47:44;98669.06;;;8.51
48854;BMP280;34673;52.808;17.856;2023-03-13T14:50:13;98656.25;;;8.48
48854;BMP280;34673;52.808;17.856;2023-03-13T14:52:46;98659.56;;;8.53
48854;BMP280;34673;52.808;17.856;2023-03-13T14:58:03;98655.13;;;8.58
48854;BMP280;34673;52.808;17.856;2023-03-13T15:00:34;98660.97;;;8.63
48854;BMP280;34673;52.808;17.856;2023-03-13T15:08:44;98652.19;;;8.70
48854;BMP280;34673;52.808;17.856;2023-03-13T15:11:29;98660.66;;;8.75
48854;BMP280;34673;52.808;17.856;2023-03-13T15:13:57;98653.72;;;8.77
48854;BMP280;34673;52.808;17.856;2023-03-13T15:16:26;98646.88;;;8.76
48854;BMP280;34673;52.808;17.856;2023-03-13T15:18:54;98631.41;;;8.76
48854;BMP280;34673;52.808;17.856;2023-03-13T15:21:33;98648.31;;;8.86
48854;BMP280;34673;52.808;17.856;2023-03-13T15:24:09;98654.31;;;8.87
48854;BMP280;34673;52.808;17.856;2023-03-13T15:26:38;98636.31;;;8.85
48854;BMP280;34673;52.808;17.856;2023-03-13T15:29:05;98647.34;;;8.91
48854;BMP280;34673;52.808;17.856;2023-03-13T15:31:32;98648.22;;;8.90
48854;BMP280;34673;52.808;17.856;2023-03-13T15:34:00;98646.34;;;8.95
48854;BMP280;34673;52.808;17.856;2023-03-13T15:36:28;98643.75;;;8.96
48854;BMP280;34673;52.808;17.856;2023-03-13T15:38:56;98652.25;;;8.98
48854;BMP280;34673;52.808;17.856;2023-03-13T15:41:23;98651.31;;;9.01
48854;BMP280;34673;52.808;17.856;2023-03-13T15:43:51;98646.97;;;9.03
48854;BMP280;34673;52.808;17.856;2023-03-13T15:46:19;98641.78;;;9.04
48854;BMP280;34673;52.808;17.856;2023-03-13T15:48:46;98654.63;;;9.06
48854;BMP280;34673;52.808;17.856;2023-03-13T15:51:15;98656.22;;;9.10
48854;BMP280;34673;52.808;17.856;2023-03-13T15:53:43;98644.16;;;9.12
48854;BMP280;34673;52.808;17.856;2023-03-13T15:56:17;98644.03;;;9.15
48854;BMP280;34673;52.808;17.856;2023-03-13T15:58:46;98626.03;;;9.14
48854;BMP280;34673;52.808;17.856;2023-03-13T16:01:15;98637.97;;;9.16
48854;BMP280;34673;52.808;17.856;2023-03-13T16:03:44;98636.09;;;9.23
48854;BMP280;34673;52.808;17.856;2023-03-13T16:06:17;98635.13;;;9.25
48854;BMP280;34673;52.808;17.856;2023-03-13T16:08:46;98643.75;;;9.24
48854;BMP280;34673;52.808;17.856;2023-03-13T16:11:15;98650.53;;;9.28
48854;BMP280;34673;52.808;17.856;2023-03-13T16:13:43;98652.09;;;9.32
48854;BMP280;34673;52.808;17.856;2023-03-13T16:16:22;98631.38;;;9.36
48854;BMP280;34673;52.808;17.856;2023-03-13T16:18:51;98627.91;;;9.37
48854;BMP280;34673;52.808;17.856;2023-03-13T16:21:30;98626.31;;;9.32